Time;durP1;ratioP1;P1;durP2;ratioP2;P2;SDS_P1;SDS_P2;PMS_P1;PMS_P2;Temp;Humidity;BMP_temperature;BMP_pressure;BME280_temperature;BME280_humidity;BME280_pressure;Samples;Min_cycle;Max_cycle;Signal;HPM_P1;HPM_P2
2023/11/24 00:01:54;;;;;;;;;;;;;;;;;;5111070;28;19923;-53
2023/11/24 00:04:20;;;;;;;;;;;;;;;;;;5090288;28;19920;-54
2023/11/24 00:06:46;;;;;;;;;;;;;;;;;;5112421;28;19912;-55
2023/11/24 00:09:12;;;;;;;;;;;;;;;;;;5107444;28;19991;-54
2023/11/24 00:11:38;;;;;;;;;;;;;;;;;;5103052;28;20025;-53
2023/11/24 00:14:03;;;;;;;;;;;;;;;;;;5105858;28;19939;-50
2023/11/24 00:16:28;;;;;;;;;;;;;;;;;;5104334;28;19977;-50
2023/11/24 00:18:54;;;;;;;;;;;;;;;;;;5094601;28;19913;-55
2023/11/24 00:21:19;;;;;;;;;;;;;;;;;;5100240;28;19913;-51
2023/11/24 00:23:45;;;;;;;;;;;;;;;;;;5094930;28;19912;-54
2023/11/24 00:26:10;;;;;;;;;;;;;;;;;;5094126;28;19919;-51
2023/11/24 00:28:46;;;;;;;;;;;;;;;;;;5094340;28;19984;-50
2023/11/24 00:31:12;;;;;;;;;;;;;;;;;;5102261;28;19919;-53
2023/11/24 00:33:37;;;;;;;;;;;;;;;;;;5098876;28;19912;-52
2023/11/24 00:36:03;;;;;;;;;;;;;;;;;;5110940;28;19913;-51
2023/11/24 00:38:28;;;;;;;;;;;;;;;;;;5081561;28;19913;-53
2023/11/24 00:40:54;;;;;;;;;;;;;;;;;;5115019;28;19916;-51
2023/11/24 00:43:22;;;;;;;;;;;;;;;;;;5080549;28;19913;-55
2023/11/24 00:45:47;;;;;;;;;;;;;;;;;;5093403;28;19922;-52
2023/11/24 00:48:12;;;;;;;;;;;;;;;;;;5087209;28;19924;-54
2023/11/24 00:50:38;;;;;;;;;;;;;;;;;;5098009;28;19919;-49
2023/11/24 00:53:05;;;;;;;;;;;;;;;;;;5097521;28;19955;-52
2023/11/24 00:55:31;;;;;;;;;;;;;;;;;;5119405;28;19922;-54
2023/11/24 00:57:56;;;;;;;;;;;;;;;;;;5098326;28;19920;-53
2023/11/24 01:00:23;;;;;;;;;;;;;;;;;;5113388;28;19919;-54
2023/11/24 01:02:49;;;;;;;;;;;;;;;;;;5110483;28;19953;-51
2023/11/24 01:05:15;;;;;;;;;;;;;;;;;;5109428;28;19908;-53
2023/11/24 01:07:40;;;;;;;;;;;;;;;;;;5127528;28;19931;-51
2023/11/24 01:10:07;;;;;;;;;;;;;;;;;;5111459;28;19920;-54
2023/11/24 01:12:33;;;;;;;;;;;;;;;;;;5083558;28;19912;-52
2023/11/24 01:15:00;;;;;;;;;;;;;;;;;;5106466;28;19912;-52
2023/11/24 01:17:25;;;;;;;;;;;;;;;;;;5120456;28;19912;-53
2023/11/24 01:19:50;;;;;;;;;;;;;;;;;;5075585;28;19932;-54
2023/11/24 01:22:16;;;;;;;;;;;;;;;;;;5093542;28;19917;-51
2023/11/24 01:24:41;;;;;;;;;;;;;;;;;;5102434;28;19935;-53
2023/11/24 01:27:06;;;;;;;;;;;;;;;;;;5097882;28;19959;-51
2023/11/24 01:29:32;;;;;;;;;;;;;;;;;;5093567;28;19916;-53
2023/11/24 01:31:57;;;;;;;;;;;;;;;;;;5107796;28;19923;-55
2023/11/24 01:34:23;;;;;;;;;;;;;;;;;;5120117;28;19946;-53
2023/11/24 01:36:48;;;;;;;;;;;;;;;;;;5092414;28;19916;-50
2023/11/24 01:39:14;;;;;;;;;;;;;;;;;;5082057;28;19913;-55
2023/11/24 01:41:40;;;;;;;;;;;;;;;;;;5096744;28;19927;-53
2023/11/24 01:44:05;;;;;;;;;;;;;;;;;;5103346;28;19989;-55
2023/11/24 01:46:31;;;;;;;;;;;;;;;;;;5086585;28;19959;-53
2023/11/24 01:48:56;;;;;;;;;;;;;;;;;;5099191;28;19939;-54
2023/11/24 01:51:22;;;;;;;;;;;;;;;;;;5093726;28;19944;-54
2023/11/24 01:53:47;;;;;;;;;;;;;;;;;;5099565;28;19922;-50
2023/11/24 01:56:13;;;;;;;;;;;;;;;;;;5119091;28;19942;-50
2023/11/24 01:58:38;;;;;;;;;;;;;;;;;;5081647;28;19920;-51
2023/11/24 02:01:04;;;;;;;;;;;;;;;;;;5121320;28;19912;-53
2023/11/24 02:03:29;;;;;;;;;;;;;;;;;;5084780;28;19913;-50
2023/11/24 02:05:55;;;;;;;;;;;;;;;;;;5123668;28;19919;-50
2023/11/24 02:08:20;;;;;;;;;;;;;;;;;;5085746;28;19931;-53
2023/11/24 02:10:46;;;;;;;;;;;;;;;;;;5107920;28;20065;-53
2023/11/24 02:13:11;;;;;;;;;;;;;;;;;;5104308;28;19913;-52
2023/11/24 02:15:37;;;;;;;;;;;;;;;;;;5123680;28;19934;-50
2023/11/24 02:18:02;;;;;;;;;;;;;;;;;;5119541;28;19916;-53
2023/11/24 02:20:33;;;;;;;;;;;;;;;;;;5092095;28;19919;-53
2023/11/24 02:22:58;;;;;;;;;;;;;;;;;;5120710;28;19922;-54
2023/11/24 02:25:24;;;;;;;;;;;;;;;;;;5090611;28;19916;-53
2023/11/24 02:27:49;;;;;;;;;;;;;;;;;;5103799;28;19913;-52
2023/11/24 02:30:15;;;;;;;;;;;;;;;;;;5109323;28;19920;-51
2023/11/24 02:32:40;;;;;;;;;;;;;;;;;;5131102;28;19916;-55
2023/11/24 02:35:06;;;;;;;;;;;;;;;;;;5128121;28;19942;-52
2023/11/24 02:37:31;;;;;;;;;;;;;;;;;;5105484;28;19912;-51
2023/11/24 02:39:57;;;;;;;;;;;;;;;;;;5078493;28;19912;-49
2023/11/24 02:42:22;;;;;;;;;;;;;;;;;;5095173;28;19980;-49
2023/11/24 02:44:48;;;;;;;;;;;;;;;;;;5113275;28;19919;-52
2023/11/24 02:47:13;;;;;;;;;;;;;;;;;;5102563;28;19912;-49
2023/11/24 02:49:39;;;;;;;;;;;;;;;;;;5100395;28;19916;-53
2023/11/24 02:52:04;;;;;;;;;;;;;;;;;;5131070;28;19938;-52
2023/11/24 02:54:30;;;;;;;;;;;;;;;;;;5113235;28;19912;-48
2023/11/24 02:56:55;;;;;;;;;;;;;;;;;;5110265;28;19916;-53
2023/11/24 02:59:21;;;;;;;;;;;;;;;;;;5090262;28;19920;-54
2023/11/24 03:01:46;;;;;;;;;;;;;;;;;;5111776;28;19916;-50
2023/11/24 03:04:12;;;;;;;;;;;;;;;;;;5107440;28;19983;-51
2023/11/24 03:06:37;;;;;;;;;;;;;;;;;;5112287;28;19912;-54
2023/11/24 03:09:06;;;;;;;;;;;;;;;;;;5107766;28;19975;-54
2023/11/24 03:11:31;;;;;;;;;;;;;;;;;;5084203;28;19908;-53
2023/11/24 03:13:56;;;;;;;;;;;;;;;;;;5094209;28;19923;-51
2023/11/24 03:16:21;;;;;;;;;;;;;;;;;;5096657;28;19912;-52
2023/11/24 03:18:47;;;;;;;;;;;;;;;;;;5078639;28;19901;-49
2023/11/24 03:21:13;;;;;;;;;;;;;;;;;;5084781;28;19975;-49
2023/11/24 03:23:39;;;;;;;;;;;;;;;;;;5102094;28;20010;-51
2023/11/24 03:26:04;;;;;;;;;;;;;;;;;;5111263;28;19917;-50
2023/11/24 03:28:30;;;;;;;;;;;;;;;;;;5095060;28;19916;-52
2023/11/24 03:30:55;;;;;;;;;;;;;;;;;;5095173;28;19972;-52
2023/11/24 03:33:23;;;;;;;;;;;;;;;;;;5100931;28;19917;-48
2023/11/24 03:35:49;;;;;;;;;;;;;;;;;;5084218;28;19912;-49
2023/11/24 03:38:14;;;;;;;;;;;;;;;;;;5117601;28;19913;-50
2023/11/24 03:40:40;;;;;;;;;;;;;;;;;;5107297;28;19947;-49
2023/11/24 03:43:05;;;;;;;;;;;;;;;;;;5108609;28;19912;-52
2023/11/24 03:45:31;;;;;;;;;;;;;;;;;;5131003;28;19908;-49
2023/11/24 03:47:56;;;;;;;;;;;;;;;;;;5104119;28;19936;-50
2023/11/24 03:50:21;;;;;;;;;;;;;;;;;;5095613;28;19923;-53
2023/11/24 03:52:47;;;;;;;;;;;;;;;;;;5112292;28;19912;-51
2023/11/24 03:55:12;;;;;;;;;;;;;;;;;;5129031;28;19912;-51
2023/11/24 03:57:38;;;;;;;;;;;;;;;;;;5122943;28;19912;-50
2023/11/24 04:00:05;;;;;;;;;;;;;;;;;;5114092;28;19988;-50
2023/11/24 04:02:38;;;;;;;;;;;;;;;;;;5110455;28;19965;-50
2023/11/24 04:05:03;;;;;;;;;;;;;;;;;;5102055;28;19915;-53
2023/11/24 04:07:28;;;;;;;;;;;;;;;;;;5090285;28;19912;-51
2023/11/24 04:09:54;;;;;;;;;;;;;;;;;;5099512;28;19916;-51
2023/11/24 04:12:19;;;;;;;;;;;;;;;;;;5106409;28;19912;-47
2023/11/24 04:14:45;;;;;;;;;;;;;;;;;;5112898;28;19941;-52
2023/11/24 04:17:10;;;;;;;;;;;;;;;;;;5126621;28;19951;-52
2023/11/24 04:19:36;;;;;;;;;;;;;;;;;;5094411;28;19912;-54
2023/11/24 04:22:02;;;;;;;;;;;;;;;;;;5110479;28;19921;-48
2023/11/24 04:24:27;;;;;;;;;;;;;;;;;;5094518;28;19919;-53
2023/11/24 04:26:52;;;;;;;;;;;;;;;;;;5076948;28;19917;-52
2023/11/24 04:29:21;;;;;;;;;;;;;;;;;;5095670;28;19917;-53
2023/11/24 04:31:46;;;;;;;;;;;;;;;;;;5094508;28;19913;-52
2023/11/24 04:34:12;;;;;;;;;;;;;;;;;;5093941;28;19924;-50
2023/11/24 04:36:37;;;;;;;;;;;;;;;;;;5095374;28;19923;-51
2023/11/24 04:39:03;;;;;;;;;;;;;;;;;;5094741;28;19919;-52
2023/11/24 04:41:28;;;;;;;;;;;;;;;;;;5077290;28;19912;-52
2023/11/24 04:43:53;;;;;;;;;;;;;;;;;;5099705;28;19919;-53
2023/11/24 04:46:18;;;;;;;;;;;;;;;;;;5095340;28;19919;-53
2023/11/24 04:48:44;;;;;;;;;;;;;;;;;;5100474;28;19916;-53
2023/11/24 04:51:09;;;;;;;;;;;;;;;;;;5094807;28;19912;-49
2023/11/24 04:53:35;;;;;;;;;;;;;;;;;;5083487;28;20048;-51
2023/11/24 04:56:02;;;;;;;;;;;;;;;;;;5099308;28;19980;-53
2023/11/24 04:58:27;;;;;;;;;;;;;;;;;;5097592;28;19916;-52
2023/11/24 05:00:52;;;;;;;;;;;;;;;;;;5095499;28;19920;-49
2023/11/24 05:03:17;;;;;;;;;;;;;;;;;;5100795;28;19922;-51
2023/11/24 05:05:43;;;;;;;;;;;;;;;;;;5099717;28;19912;-51
2023/11/24 05:08:08;;;;;;;;;;;;;;;;;;5095433;28;19924;-53
2023/11/24 05:10:34;;;;;;;;;;;;;;;;;;5093591;28;19948;-52
2023/11/24 05:12:59;;;;;;;;;;;;;;;;;;5095009;28;19912;-49
2023/11/24 05:15:25;;;;;;;;;;;;;;;;;;5096374;28;19934;-49
2023/11/24 05:17:50;;;;;;;;;;;;;;;;;;5094846;28;19916;-50
2023/11/24 05:20:18;;;;;;;;;;;;;;;;;;5093719;28;19913;-54
2023/11/24 05:22:44;;;;;;;;;;;;;;;;;;5093733;28;19913;-54
2023/11/24 05:25:10;;;;;;;;;;;;;;;;;;5082797;28;19927;-54
2023/11/24 05:27:35;;;;;;;;;;;;;;;;;;5093632;28;19912;-52
2023/11/24 05:30:02;;;;;;;;;;;;;;;;;;5102420;28;19919;-52
2023/11/24 05:32:27;;;;;;;;;;;;;;;;;;5094521;28;20354;-54
2023/11/24 05:34:53;;;;;;;;;;;;;;;;;;5107272;28;19912;-53
2023/11/24 05:37:19;;;;;;;;;;;;;;;;;;5079830;28;19912;-53
2023/11/24 05:39:44;;;;;;;;;;;;;;;;;;5103849;28;19966;-50
2023/11/24 05:42:10;;;;;;;;;;;;;;;;;;5080068;28;19912;-52
2023/11/24 05:44:35;;;;;;;;;;;;;;;;;;5097167;28;19916;-51
2023/11/24 05:47:04;;;;;;;;;;;;;;;;;;5097058;28;19939;-55
2023/11/24 05:49:30;;;;;;;;;;;;;;;;;;5097238;28;19927;-52
2023/11/24 05:51:56;;;;;;;;;;;;;;;;;;5097350;28;19980;-51
2023/11/24 05:54:21;;;;;;;;;;;;;;;;;;5103047;28;19935;-51
2023/11/24 05:56:47;;;;;;;;;;;;;;;;;;5096742;28;19988;-51
2023/11/24 05:59:12;;;;;;;;;;;;;;;;;;5097236;28;19912;-52
2023/11/24 06:01:38;;;;;;;;;;;;;;;;;;5096582;28;19913;-52
2023/11/24 06:04:03;;;;;;;;;;;;;;;;;;5103237;28;19912;-48
2023/11/24 06:06:29;;;;;;;;;;;;;;;;;;5096850;28;19923;-54
2023/11/24 06:08:54;;;;;;;;;;;;;;;;;;5107288;28;19931;-52
2023/11/24 06:11:19;;;;;;;;;;;;;;;;;;5097634;28;20003;-52
2023/11/24 06:13:46;;;;;;;;;;;;;;;;;;5099781;28;19988;-53
2023/11/24 06:16:11;;;;;;;;;;;;;;;;;;5097988;28;19912;-50
2023/11/24 06:18:37;;;;;;;;;;;;;;;;;;5097448;28;19960;-49
2023/11/24 06:21:02;;;;;;;;;;;;;;;;;;5096118;28;19913;-48
2023/11/24 06:23:27;;;;;;;;;;;;;;;;;;5101965;28;19930;-52
2023/11/24 06:25:52;;;;;;;;;;;;;;;;;;5079278;28;19913;-51
2023/11/24 06:28:18;;;;;;;;;;;;;;;;;;5096000;28;19919;-53
2023/11/24 06:30:43;;;;;;;;;;;;;;;;;;5096276;28;19913;-50
2023/11/24 06:33:09;;;;;;;;;;;;;;;;;;5096003;28;19932;-51
2023/11/24 06:35:35;;;;;;;;;;;;;;;;;;5106358;28;19916;-52
2023/11/24 06:38:01;;;;;;;;;;;;;;;;;;5114774;28;19908;-53
2023/11/24 06:40:27;;;;;;;;;;;;;;;;;;5096088;28;19938;-52
2023/11/24 06:42:52;;;;;;;;;;;;;;;;;;5096347;28;19912;-51
2023/11/24 06:45:18;;;;;;;;;;;;;;;;;;5096404;28;19919;-55
2023/11/24 06:47:43;;;;;;;;;;;;;;;;;;5095210;28;19913;-52
2023/11/24 06:50:12;;;;;;;;;;;;;;;;;;5096969;28;19920;-51
2023/11/24 06:52:38;;;;;;;;;;;;;;;;;;5096894;28;19980;-56
2023/11/24 06:55:04;;;;;;;;;;;;;;;;;;5106101;28;19912;-53
2023/11/24 06:57:29;;;;;;;;;;;;;;;;;;5103552;28;19950;-51
2023/11/24 06:59:55;;;;;;;;;;;;;;;;;;5098626;28;19924;-52
2023/11/24 07:02:20;;;;;;;;;;;;;;;;;;5096736;28;19951;-51
2023/11/24 07:04:47;;;;;;;;;;;;;;;;;;5098993;28;19930;-54
2023/11/24 07:07:13;;;;;;;;;;;;;;;;;;5104871;28;19932;-50
2023/11/24 07:09:38;;;;;;;;;;;;;;;;;;5102163;28;20017;-53
2023/11/24 07:12:04;;;;;;;;;;;;;;;;;;5100304;28;19908;-49
2023/11/24 07:14:29;;;;;;;;;;;;;;;;;;5098114;28;19920;-52
2023/11/24 07:16:55;;;;;;;;;;;;;;;;;;5102181;28;19913;-54
2023/11/24 07:19:22;;;;;;;;;;;;;;;;;;5095757;28;19980;-55
2023/11/24 07:21:48;;;;;;;;;;;;;;;;;;5095238;28;19937;-53
2023/11/24 07:24:13;;;;;;;;;;;;;;;;;;5095788;28;19912;-55
2023/11/24 07:26:39;;;;;;;;;;;;;;;;;;5103295;28;19913;-50
2023/11/24 07:29:04;;;;;;;;;;;;;;;;;;5097148;28;19947;-53
2023/11/24 07:31:30;;;;;;;;;;;;;;;;;;5095130;28;19942;-50
2023/11/24 07:33:55;;;;;;;;;;;;;;;;;;5095557;28;19959;-52
2023/11/24 07:36:21;;;;;;;;;;;;;;;;;;5100529;28;19917;-52
2023/11/24 07:38:46;;;;;;;;;;;;;;;;;;5099471;28;19916;-51
2023/11/24 07:41:12;;;;;;;;;;;;;;;;;;5085309;28;19913;-50
2023/11/24 07:43:37;;;;;;;;;;;;;;;;;;5099185;28;19946;-54
2023/11/24 07:46:10;;;;;;;;;;;;;;;;;;5103095;28;19988;-49
2023/11/24 07:48:36;;;;;;;;;;;;;;;;;;5096696;28;19916;-50
2023/11/24 07:51:01;;;;;;;;;;;;;;;;;;5102121;28;19923;-53
2023/11/24 07:53:27;;;;;;;;;;;;;;;;;;5094814;28;19973;-52
2023/11/24 07:55:52;;;;;;;;;;;;;;;;;;5100649;28;19968;-48
2023/11/24 07:58:19;;;;;;;;;;;;;;;;;;5094880;28;19916;-49
2023/11/24 08:00:45;;;;;;;;;;;;;;;;;;5094481;28;19987;-53
2023/11/24 08:03:11;;;;;;;;;;;;;;;;;;5095092;28;19920;-52
2023/11/24 08:05:36;;;;;;;;;;;;;;;;;;5100554;28;19945;-53
2023/11/24 08:08:02;;;;;;;;;;;;;;;;;;5094098;28;19922;-53
2023/11/24 08:10:27;;;;;;;;;;;;;;;;;;5094616;28;19916;-53
2023/11/24 08:12:53;;;;;;;;;;;;;;;;;;5094353;28;19912;-55
2023/11/24 08:15:19;;;;;;;;;;;;;;;;;;5099440;28;19912;-53
2023/11/24 08:17:44;;;;;;;;;;;;;;;;;;5094707;28;19923;-53
2023/11/24 08:20:10;;;;;;;;;;;;;;;;;;5087391;28;19977;-49
2023/11/24 08:22:36;;;;;;;;;;;;;;;;;;5096794;28;19940;-48
2023/11/24 08:25:03;;;;;;;;;;;;;;;;;;5097978;28;19919;-52
2023/11/24 08:27:28;;;;;;;;;;;;;;;;;;5100220;28;19912;-52
2023/11/24 08:29:54;;;;;;;;;;;;;;;;;;5093995;28;19928;-52
2023/11/24 08:32:19;;;;;;;;;;;;;;;;;;5098785;28;19912;-49
2023/11/24 08:34:45;;;;;;;;;;;;;;;;;;5105677;28;19923;-49
2023/11/24 08:37:11;;;;;;;;;;;;;;;;;;5097464;28;19916;-53
2023/11/24 08:39:38;;;;;;;;;;;;;;;;;;5089820;28;19916;-52
2023/11/24 08:42:03;;;;;;;;;;;;;;;;;;5099023;28;19937;-50
2023/11/24 08:44:28;;;;;;;;;;;;;;;;;;5094006;28;19912;-51
2023/11/24 08:46:54;;;;;;;;;;;;;;;;;;5111997;28;19912;-52
2023/11/24 08:49:21;;;;;;;;;;;;;;;;;;5120901;28;19920;-55
2023/11/24 08:51:47;;;;;;;;;;;;;;;;;;5096747;28;19962;-52
2023/11/24 08:54:13;;;;;;;;;;;;;;;;;;5096162;28;19919;-51
2023/11/24 08:56:39;;;;;;;;;;;;;;;;;;5098766;28;19948;-52
2023/11/24 08:59:10;;;;;;;;;;;;;;;;;;5096315;28;19958;-54
2023/11/24 09:01:36;;;;;;;;;;;;;;;;;;5098645;28;19912;-51
2023/11/24 09:04:02;;;;;;;;;;;;;;;;;;5096018;28;19912;-49
2023/11/24 09:06:27;;;;;;;;;;;;;;;;;;5098976;28;19916;-50
2023/11/24 09:08:53;;;;;;;;;;;;;;;;;;5093979;28;19938;-50
2023/11/24 09:11:19;;;;;;;;;;;;;;;;;;5099428;28;19916;-53
2023/11/24 09:13:44;;;;;;;;;;;;;;;;;;5099821;28;19912;-51
2023/11/24 09:16:09;;;;;;;;;;;;;;;;;;5099496;28;19912;-53
2023/11/24 09:18:35;;;;;;;;;;;;;;;;;;5097384;28;19927;-52
2023/11/24 09:21:01;;;;;;;;;;;;;;;;;;5079752;28;19972;-50
2023/11/24 09:23:26;;;;;;;;;;;;;;;;;;5097434;28;20117;-50
2023/11/24 09:25:52;;;;;;;;;;;;;;;;;;5104528;28;19919;-51
2023/11/24 09:28:17;;;;;;;;;;;;;;;;;;5103931;28;19954;-53
2023/11/24 09:30:44;;;;;;;;;;;;;;;;;;5100991;28;19912;-53
2023/11/24 09:33:11;;;;;;;;;;;;;;;;;;5108705;28;19922;-51
2023/11/24 09:35:36;;;;;;;;;;;;;;;;;;5123294;28;19912;-52
2023/11/24 09:38:01;;;;;;;;;;;;;;;;;;5114359;28;19923;-53
2023/11/24 09:40:26;;;;;;;;;;;;;;;;;;5112746;28;19956;-51
2023/11/24 09:42:52;;;;;;;;;;;;;;;;;;5105541;28;19947;-52
2023/11/24 09:45:19;;;;;;;;;;;;;;;;;;5088189;28;19972;-52
2023/11/24 09:47:48;;;;;;;;;;;;;;;;;;5086584;28;19917;-51
2023/11/24 09:50:14;;;;;;;;;;;;;;;;;;5098998;28;19946;-51
2023/11/24 09:52:39;;;;;;;;;;;;;;;;;;5092248;28;19913;-53
2023/11/24 09:55:05;;;;;;;;;;;;;;;;;;5093286;28;19919;-50
2023/11/24 09:57:30;;;;;;;;;;;;;;;;;;5089648;28;19913;-50
2023/11/24 09:59:56;;;;;;;;;;;;;;;;;;5098388;28;19912;-53
2023/11/24 10:02:22;;;;;;;;;;;;;;;;;;5114217;28;19912;-51
2023/11/24 10:04:47;;;;;;;;;;;;;;;;;;5096936;28;19920;-52
2023/11/24 10:07:13;;;;;;;;;;;;;;;;;;5095967;28;19988;-51
2023/11/24 10:09:38;;;;;;;;;;;;;;;;;;5097221;28;19927;-52
2023/11/24 10:12:05;;;;;;;;;;;;;;;;;;5099532;28;19913;-52
2023/11/24 10:14:30;;;;;;;;;;;;;;;;;;5096070;28;19912;-52
2023/11/24 10:16:57;;;;;;;;;;;;;;;;;;5085792;28;19916;-50
2023/11/24 10:19:26;;;;;;;;;;;;;;;;;;5102266;28;19934;-52
2023/11/24 10:21:51;;;;;;;;;;;;;;;;;;5091746;28;19912;-53
2023/11/24 10:24:17;;;;;;;;;;;;;;;;;;5100880;28;19980;-54
2023/11/24 10:26:44;;;;;;;;;;;;;;;;;;5101923;28;19920;-51
2023/11/24 10:29:09;;;;;;;;;;;;;;;;;;5095709;28;19937;-53
2023/11/24 10:31:34;;;;;;;;;;;;;;;;;;5102639;28;19920;-53
2023/11/24 10:34:01;;;;;;;;;;;;;;;;;;5097066;28;19920;-52
2023/11/24 10:36:28;;;;;;;;;;;;;;;;;;5097974;28;19923;-51
2023/11/24 10:38:54;;;;;;;;;;;;;;;;;;5108637;28;19936;-52
2023/11/24 10:41:22;;;;;;;;;;;;;;;;;;5094124;28;19936;-51
2023/11/24 10:43:48;;;;;;;;;;;;;;;;;;5101629;28;19935;-53
2023/11/24 10:46:14;;;;;;;;;;;;;;;;;;5097064;28;19931;-54
2023/11/24 10:48:39;;;;;;;;;;;;;;;;;;5107616;28;20033;-51
2023/11/24 10:51:05;;;;;;;;;;;;;;;;;;5076080;28;19928;-53
2023/11/24 10:53:31;;;;;;;;;;;;;;;;;;5113523;28;19977;-50
2023/11/24 10:55:57;;;;;;;;;;;;;;;;;;5102359;28;19943;-53
2023/11/24 10:58:23;;;;;;;;;;;;;;;;;;5108946;28;19988;-54
2023/11/24 11:00:48;;;;;;;;;;;;;;;;;;5103982;28;19920;-54
2023/11/24 11:03:15;;;;;;;;;;;;;;;;;;5096390;28;19919;-54
2023/11/24 11:05:41;;;;;;;;;;;;;;;;;;5108933;28;19908;-51
2023/11/24 11:08:08;;;;;;;;;;;;;;;;;;5113894;28;20190;-53
2023/11/24 11:10:36;;;;;;;;;;;;;;;;;;5112415;28;19958;-53
2023/11/24 11:13:02;;;;;;;;;;;;;;;;;;5110662;28;19916;-52
2023/11/24 11:15:31;;;;;;;;;;;;;;;;;;5102987;28;19923;-53
2023/11/24 11:17:56;;;;;;;;;;;;;;;;;;5109822;28;19919;-49
2023/11/24 11:20:22;;;;;;;;;;;;;;;;;;5109643;28;20015;-55
2023/11/24 11:22:48;;;;;;;;;;;;;;;;;;5114397;28;19912;-50
2023/11/24 11:25:18;;;;;;;;;;;;;;;;;;5104047;28;19912;-53
2023/11/24 11:27:45;;;;;;;;;;;;;;;;;;5078011;28;19908;-52
2023/11/24 11:30:10;;;;;;;;;;;;;;;;;;5100654;28;19924;-55
2023/11/24 11:32:37;;;;;;;;;;;;;;;;;;5098064;28;19913;-53
2023/11/24 11:35:03;;;;;;;;;;;;;;;;;;5093534;28;19912;-50
2023/11/24 11:37:28;;;;;;;;;;;;;;;;;;5099866;28;19916;-51
2023/11/24 11:39:57;;;;;;;;;;;;;;;;;;5108162;28;19913;-53
2023/11/24 11:42:22;;;;;;;;;;;;;;;;;;5093846;28;19975;-50
2023/11/24 11:44:48;;;;;;;;;;;;;;;;;;5094074;28;19992;-54
2023/11/24 11:47:26;;;;;;;;;;;;;;;;;;5100555;28;19971;-51
2023/11/24 11:49:51;;;;;;;;;;;;;;;;;;5097096;28;19924;-52
2023/11/24 11:52:16;;;;;;;;;;;;;;;;;;5099446;28;19916;-53
2023/11/24 11:54:45;;;;;;;;;;;;;;;;;;5100431;28;19912;-54
2023/11/24 11:57:10;;;;;;;;;;;;;;;;;;5091853;28;19912;-50
2023/11/24 11:59:36;;;;;;;;;;;;;;;;;;5088549;28;19924;-52
2023/11/24 12:02:01;;;;;;;;;;;;;;;;;;5095163;28;19920;-54
2023/11/24 12:04:28;;;;;;;;;;;;;;;;;;5095463;28;19947;-53
2023/11/24 12:06:53;;;;;;;;;;;;;;;;;;5088730;28;19917;-49
2023/11/24 12:09:19;;;;;;;;;;;;;;;;;;5105941;28;19959;-54
2023/11/24 12:11:45;;;;;;;;;;;;;;;;;;5093171;28;19908;-53
2023/11/24 12:14:10;;;;;;;;;;;;;;;;;;5091313;28;19942;-51
2023/11/24 12:16:36;;;;;;;;;;;;;;;;;;5099874;28;19913;-51
2023/11/24 12:19:04;;;;;;;;;;;;;;;;;;5100682;28;19916;-53
2023/11/24 12:21:30;;;;;;;;;;;;;;;;;;5111716;28;19912;-55
2023/11/24 12:23:55;;;;;;;;;;;;;;;;;;5111885;28;19935;-51
2023/11/24 12:26:20;;;;;;;;;;;;;;;;;;5103746;28;19967;-51
2023/11/24 12:28:46;;;;;;;;;;;;;;;;;;5108034;28;19942;-50
2023/11/24 12:31:11;;;;;;;;;;;;;;;;;;5111833;28;19923;-55
2023/11/24 12:33:37;;;;;;;;;;;;;;;;;;5112338;28;19971;-54
2023/11/24 12:36:04;;;;;;;;;;;;;;;;;;5093623;28;19913;-54
2023/11/24 12:38:30;;;;;;;;;;;;;;;;;;5088228;28;19908;-54
2023/11/24 12:40:55;;;;;;;;;;;;;;;;;;5101978;28;19974;-55
2023/11/24 12:43:24;;;;;;;;;;;;;;;;;;5111955;28;19921;-54
2023/11/24 12:45:49;;;;;;;;;;;;;;;;;;5129438;28;19923;-57
2023/11/24 12:48:15;;;;;;;;;;;;;;;;;;5100037;28;19920;-51
2023/11/24 12:50:40;;;;;;;;;;;;;;;;;;5099364;28;19970;-51
2023/11/24 12:53:06;;;;;;;;;;;;;;;;;;5093808;28;19920;-52
2023/11/24 12:55:31;;;;;;;;;;;;;;;;;;5100282;28;19936;-51
2023/11/24 12:57:56;;;;;;;;;;;;;;;;;;5105028;28;19913;-55
2023/11/24 13:00:26;;;;;;;;;;;;;;;;;;5104774;28;19934;-49
2023/11/24 13:02:51;;;;;;;;;;;;;;;;;;5105370;28;19922;-48
2023/11/24 13:05:17;;;;;;;;;;;;;;;;;;5102999;28;19920;-48
2023/11/24 13:07:43;;;;;;;;;;;;;;;;;;5103711;28;19913;-52
2023/11/24 13:10:12;;;;;;;;;;;;;;;;;;5110371;28;19916;-53
2023/11/24 13:12:37;;;;;;;;;;;;;;;;;;5102495;28;19931;-53
2023/11/24 13:15:03;;;;;;;;;;;;;;;;;;5100780;28;19916;-52
2023/11/24 13:17:28;;;;;;;;;;;;;;;;;;5089600;28;19991;-49
2023/11/24 13:19:54;;;;;;;;;;;;;;;;;;5098973;28;20031;-54
2023/11/24 13:22:20;;;;;;;;;;;;;;;;;;5093903;28;19923;-52
2023/11/24 13:24:45;;;;;;;;;;;;;;;;;;5097065;28;19921;-54
2023/11/24 13:27:12;;;;;;;;;;;;;;;;;;5097488;28;19996;-49
2023/11/24 13:29:38;;;;;;;;;;;;;;;;;;5105915;28;19920;-52
2023/11/24 13:32:07;;;;;;;;;;;;;;;;;;5107700;28;19912;-51
2023/11/24 13:34:33;;;;;;;;;;;;;;;;;;5111688;28;19965;-54
2023/11/24 13:36:58;;;;;;;;;;;;;;;;;;5103930;28;19924;-51
2023/11/24 13:39:24;;;;;;;;;;;;;;;;;;5104966;28;19912;-52
2023/11/24 13:41:50;;;;;;;;;;;;;;;;;;5110683;28;20000;-51
2023/11/24 13:44:15;;;;;;;;;;;;;;;;;;5111841;28;19912;-53
2023/11/24 13:46:42;;;;;;;;;;;;;;;;;;5104682;28;19912;-53
2023/11/24 13:49:08;;;;;;;;;;;;;;;;;;5112089;28;19927;-51
2023/11/24 13:51:34;;;;;;;;;;;;;;;;;;5108566;28;19919;-53
2023/11/24 13:54:03;;;;;;;;;;;;;;;;;;5112245;28;19915;-52
2023/11/24 13:56:29;;;;;;;;;;;;;;;;;;5092369;28;19912;-55
2023/11/24 13:58:54;;;;;;;;;;;;;;;;;;5093018;28;19912;-52
2023/11/24 14:01:20;;;;;;;;;;;;;;;;;;5101969;28;20281;-50
2023/11/24 14:03:46;;;;;;;;;;;;;;;;;;5100141;28;19939;-52
2023/11/24 14:06:12;;;;;;;;;;;;;;;;;;5097110;28;19932;-55
2023/11/24 14:08:38;;;;;;;;;;;;;;;;;;5100080;28;19916;-53
2023/11/24 14:11:05;;;;;;;;;;;;;;;;;;5098169;28;19944;-55
2023/11/24 14:13:45;;;;;;;;;;;;;;;;;;5152127;27;19918;-53
2023/11/24 14:16:10;;;;;;;;;;;;;;;;;;5143725;27;19912;-53
2023/11/24 14:18:35;;;;;;;;;;;;;;;;;;5152309;27;19920;-52
2023/11/24 14:21:01;;;;;;;;;;;;;;;;;;5144598;28;20030;-53
2023/11/24 14:23:26;;;;;;;;;;;;;;;;;;5138373;28;19987;-53
2023/11/24 14:25:53;;;;;;;;;;;;;;;;;;5149742;28;19912;-52
2023/11/24 14:28:20;;;;;;;;;;;;;;;;;;5139788;28;19971;-53
2023/11/24 14:30:46;;;;;;;;;;;;;;;;;;5141994;28;19916;-52
2023/11/24 14:33:11;;;;;;;;;;;;;;;;;;5136082;28;19987;-50
2023/11/24 14:35:39;;;;;;;;;;;;;;;;;;5151026;28;19911;-50
2023/11/24 14:38:05;;;;;;;;;;;;;;;;;;5138567;28;19972;-49
2023/11/24 14:40:32;;;;;;;;;;;;;;;;;;5144675;28;19927;-53
2023/11/24 14:42:57;;;;;;;;;;;;;;;;;;5148613;27;19915;-53
2023/11/24 14:45:25;;;;;;;;;;;;;;;;;;5134087;27;19919;-53
2023/11/24 14:47:52;;;;;;;;;;;;;;;;;;5150520;28;19923;-48
2023/11/24 14:50:19;;;;;;;;;;;;;;;;;;5147307;27;19912;-53
2023/11/24 14:52:45;;;;;;;;;;;;;;;;;;5150676;28;19912;-51
2023/11/24 14:55:11;;;;;;;;;;;;;;;;;;5143147;28;19947;-55
2023/11/24 14:57:38;;;;;;;;;;;;;;;;;;5143961;28;19912;-55
2023/11/24 15:00:08;;;;;;;;;;;;;;;;;;5148855;28;19912;-53
2023/11/24 15:02:37;;;;;;;;;;;;;;;;;;5144433;28;19930;-50
2023/11/24 15:05:05;;;;;;;;;;;;;;;;;;5130667;28;19939;-53
2023/11/24 15:07:32;;;;;;;;;;;;;;;;;;5132884;28;19991;-51
2023/11/24 15:09:58;;;;;;;;;;;;;;;;;;5139772;28;19923;-51
2023/11/24 15:12:26;;;;;;;;;;;;;;;;;;5133439;28;19920;-51
2023/11/24 15:14:53;;;;;;;;;;;;;;;;;;5131731;28;19919;-51
2023/11/24 15:17:18;;;;;;;;;;;;;;;;;;5136898;28;19972;-52
2023/11/24 15:19:48;;;;;;;;;;;;;;;;;;5148019;27;19919;-53
2023/11/24 15:22:16;;;;;;;;;;;;;;;;;;5145923;28;19915;-52
2023/11/24 15:24:41;;;;;;;;;;;;;;;;;;5136031;28;19936;-53
2023/11/24 15:27:07;;;;;;;;;;;;;;;;;;5131988;28;19976;-51
2023/11/24 15:29:35;;;;;;;;;;;;;;;;;;5133988;28;19908;-54
2023/11/24 15:32:01;;;;;;;;;;;;;;;;;;5121876;28;19923;-55
2023/11/24 15:34:28;;;;;;;;;;;;;;;;;;5112964;28;19916;-51
2023/11/24 15:36:53;;;;;;;;;;;;;;;;;;5123075;28;19912;-52
2023/11/24 15:39:40;;;;;;;;;;;;;;;;;;5127169;28;19918;-50
2023/11/24 15:42:07;;;;;;;;;;;;;;;;;;5128891;28;19915;-50
2023/11/24 15:44:32;;;;;;;;;;;;;;;;;;5136508;28;19916;-52
2023/11/24 15:46:58;;;;;;;;;;;;;;;;;;5118758;28;19975;-54
2023/11/24 15:49:23;;;;;;;;;;;;;;;;;;5123769;28;19912;-51
2023/11/24 15:51:49;;;;;;;;;;;;;;;;;;5129254;28;19912;-54
2023/11/24 15:54:15;;;;;;;;;;;;;;;;;;5122915;28;19987;-50
2023/11/24 15:56:43;;;;;;;;;;;;;;;;;;5117232;28;19912;-54
2023/11/24 15:59:11;;;;;;;;;;;;;;;;;;5136180;28;19912;-54
2023/11/24 16:01:40;;;;;;;;;;;;;;;;;;5123556;28;19988;-54
2023/11/24 16:04:08;;;;;;;;;;;;;;;;;;5115744;28;19916;-51
2023/11/24 16:06:38;;;;;;;;;;;;;;;;;;5121685;28;19908;-54
2023/11/24 16:09:03;;;;;;;;;;;;;;;;;;5115579;28;19927;-51
2023/11/24 16:11:31;;;;;;;;;;;;;;;;;;5125645;28;19912;-51
2023/11/24 16:13:57;;;;;;;;;;;;;;;;;;5122265;28;19912;-53
2023/11/24 16:16:22;;;;;;;;;;;;;;;;;;5120862;28;19923;-52
2023/11/24 16:18:48;;;;;;;;;;;;;;;;;;5128927;28;20011;-54
2023/11/24 16:21:13;;;;;;;;;;;;;;;;;;5121380;28;19912;-53
2023/11/24 16:23:39;;;;;;;;;;;;;;;;;;5121708;28;19916;-51
2023/11/24 16:26:04;;;;;;;;;;;;;;;;;;5119122;28;19916;-51
2023/11/24 16:28:29;;;;;;;;;;;;;;;;;;5115134;28;20014;-55
2023/11/24 16:30:56;;;;;;;;;;;;;;;;;;5123351;28;20384;-54
2023/11/24 16:33:22;;;;;;;;;;;;;;;;;;5121760;28;19916;-50
2023/11/24 16:35:47;;;;;;;;;;;;;;;;;;5114952;28;19933;-56
2023/11/24 16:38:13;;;;;;;;;;;;;;;;;;5118350;28;19987;-52